createdAt,value
2018-04-30T00:00:52.009Z,98117
2018-04-30T00:03:20.890Z,98110
2018-04-30T00:05:49.783Z,98105
2018-04-30T00:08:18.663Z,98096
2018-04-30T00:10:46.810Z,98099
2018-04-30T00:13:14.922Z,98092
2018-04-30T00:15:43.036Z,98091
2018-04-30T00:18:11.152Z,98091
2018-04-30T00:20:39.258Z,98093
2018-04-30T00:23:08.141Z,98088
2018-04-30T00:25:36.250Z,98083
2018-04-30T00:28:05.129Z,98080
2018-04-30T00:30:34.009Z,98071
2018-04-30T00:33:02.152Z,98065
2018-04-30T00:35:30.261Z,98062
2018-04-30T00:37:58.390Z,98053
2018-04-30T00:40:26.514Z,98043
2018-04-30T00:42:54.623Z,98037
2018-04-30T00:45:23.508Z,98033
2018-04-30T00:47:52.374Z,98025
2018-04-30T00:50:20.499Z,98024
2018-04-30T00:52:48.605Z,98018
2018-04-30T00:55:16.721Z,98015
2018-04-30T00:57:44.829Z,98024
2018-04-30T01:00:12.958Z,98022
2018-04-30T01:02:41.068Z,98015
2018-04-30T01:05:09.975Z,98011
2018-04-30T01:07:38.089Z,98000
2018-04-30T01:10:06.199Z,98006
2018-04-30T01:12:34.316Z,97994
2018-04-30T01:15:02.440Z,97991
2018-04-30T01:17:30.545Z,97986
2018-04-30T01:19:59.421Z,97985
2018-04-30T01:22:27.551Z,97983
2018-04-30T01:24:55.654Z,97985
2018-04-30T01:27:23.797Z,97984
2018-04-30T01:29:51.903Z,97974
2018-04-30T01:32:20.011Z,97980
2018-04-30T01:34:48.906Z,97975
2018-04-30T01:37:17.768Z,97973
2018-04-30T01:39:45.882Z,97970
2018-04-30T01:42:14.004Z,97956
2018-04-30T01:44:42.130Z,97956
2018-04-30T01:47:10.242Z,97952
2018-04-30T01:49:38.361Z,97955
2018-04-30T01:52:06.478Z,97956
2018-04-30T01:54:35.377Z,97952
2018-04-30T01:57:04.274Z,97942
2018-04-30T01:59:33.149Z,97942
2018-04-30T02:02:01.285Z,97935
2018-04-30T02:04:29.390Z,97929
2018-04-30T02:06:57.514Z,97930
2018-04-30T02:09:25.628Z,97932
2018-04-30T02:11:53.769Z,97928
2018-04-30T02:14:21.890Z,97918
2018-04-30T02:16:50.024Z,97923
2018-04-30T02:19:18.126Z,97900
2018-04-30T02:21:46.227Z,97907
2018-04-30T02:24:14.350Z,97910
2018-04-30T02:26:42.459Z,97910
2018-04-30T02:29:10.573Z,97909
2018-04-30T02:31:38.668Z,97916
2018-04-30T02:34:07.574Z,97904
2018-04-30T02:36:35.684Z,97908
2018-04-30T02:39:03.788Z,97906
2018-04-30T02:41:31.902Z,97895
2018-04-30T02:44:00.786Z,97894
2018-04-30T02:46:29.689Z,97885
2018-04-30T02:48:58.566Z,97885
2018-04-30T02:51:26.689Z,97890
2018-04-30T02:53:54.805Z,97890
2018-04-30T02:56:22.919Z,97882
2018-04-30T02:58:51.794Z,97889
2018-04-30T03:01:19.914Z,97882
2018-04-30T03:03:48.022Z,97880
2018-04-30T03:06:16.169Z,97884
2018-04-30T03:08:44.270Z,97872
2018-04-30T03:11:12.374Z,97874
2018-04-30T03:13:40.499Z,97869
2018-04-30T03:16:08.608Z,97863
2018-04-30T03:18:36.741Z,97867
2018-04-30T03:21:04.846Z,97870
2018-04-30T03:23:32.969Z,97870
2018-04-30T03:26:01.833Z,97867
2018-04-30T03:28:29.954Z,97865
2018-04-30T03:30:58.837Z,97858
2018-04-30T03:33:27.745Z,97860
2018-04-30T03:35:56.619Z,97856
2018-04-30T03:38:24.720Z,97854
2018-04-30T03:40:52.851Z,97852
2018-04-30T03:43:20.988Z,97847
2018-04-30T03:45:49.123Z,97845
2018-04-30T03:48:17.245Z,97848
2018-04-30T03:50:45.381Z,97853
2018-04-30T03:53:14.284Z,97842
2018-04-30T03:55:43.198Z,97842
2018-04-30T03:58:11.318Z,97843
2018-04-30T04:00:57.433Z,97843
2018-04-30T04:03:43.420Z,97839
2018-04-30T04:06:29.431Z,97845
2018-04-30T04:08:57.554Z,97841
2018-04-30T04:11:25.691Z,97846
2018-04-30T04:13:53.820Z,97850
2018-04-30T04:16:21.933Z,97844
2018-04-30T04:18:50.815Z,97844
2018-04-30T04:21:19.705Z,97841
2018-04-30T04:23:47.820Z,97840
2018-04-30T04:26:15.926Z,97838
2018-04-30T04:28:44.058Z,97842
2018-04-30T04:31:12.937Z,97849
2018-04-30T04:33:41.829Z,97847
2018-04-30T04:36:10.771Z,97851
2018-04-30T04:38:38.926Z,97855
2018-04-30T04:41:07.041Z,97850
2018-04-30T04:43:35.164Z,97849
2018-04-30T04:46:04.044Z,97856
2018-04-30T04:48:32.640Z,97841
2018-04-30T04:51:01.571Z,97863
2018-04-30T04:53:29.674Z,97854
2018-04-30T04:55:57.814Z,97861
2018-04-30T04:58:25.924Z,97857
2018-04-30T05:00:54.030Z,97866
2018-04-30T05:03:22.148Z,97863
2018-04-30T05:05:50.272Z,97860
2018-04-30T05:08:18.395Z,97863
2018-04-30T05:10:47.289Z,97870
2018-04-30T05:13:16.160Z,97863
2018-04-30T05:15:45.045Z,97858
2018-04-30T05:18:13.175Z,97870
2018-04-30T05:20:41.283Z,97877
2018-04-30T05:23:09.402Z,97866
2018-04-30T05:25:38.274Z,97868
2018-04-30T05:28:07.909Z,97872
2018-04-30T05:30:36.780Z,97858
2018-04-30T05:33:04.897Z,97870
2018-04-30T05:35:33.027Z,97863
2018-04-30T05:38:02.224Z,97871
2018-04-30T05:40:30.345Z,97870
2018-04-30T05:42:58.446Z,97873
2018-04-30T05:45:26.580Z,97879
2018-04-30T05:47:54.729Z,97873
2018-04-30T05:50:23.596Z,97876
2018-04-30T05:52:51.770Z,97873
2018-04-30T05:55:19.919Z,97877
2018-04-30T05:57:48.797Z,97877
2018-04-30T06:00:16.902Z,97871
2018-04-30T06:02:45.023Z,97880
2018-04-30T06:05:13.123Z,97879
2018-04-30T06:07:41.242Z,97875
2018-04-30T06:10:09.350Z,97884
2018-04-30T06:12:37.487Z,97884
2018-04-30T06:15:05.640Z,97892
2018-04-30T06:17:33.761Z,97895
2018-04-30T06:20:01.869Z,97892
2018-04-30T06:22:29.978Z,97874
2018-04-30T06:24:59.006Z,97876
2018-04-30T06:27:27.583Z,97880
2018-04-30T06:29:55.713Z,97876
2018-04-30T06:32:23.826Z,97877
2018-04-30T06:34:52.724Z,97870
2018-04-30T06:37:21.594Z,97883
2018-04-30T06:39:49.712Z,97888
2018-04-30T06:42:17.823Z,97883
2018-04-30T06:44:47.464Z,97882
2018-04-30T06:47:15.561Z,97881
2018-04-30T06:49:45.408Z,97878
2018-04-30T06:52:13.548Z,97892
2018-04-30T06:54:42.472Z,97913
2018-04-30T06:57:10.596Z,97916
2018-04-30T06:59:38.706Z,97925
2018-04-30T07:02:07.604Z,97917
2018-04-30T07:04:36.476Z,97925
2018-04-30T07:07:04.601Z,97922
2018-04-30T07:09:32.792Z,97925
2018-04-30T07:12:00.836Z,97934
2018-04-30T07:14:29.030Z,97929
2018-04-30T07:16:57.132Z,97943
2018-04-30T07:19:25.298Z,97952
2018-04-30T07:21:53.472Z,97949
2018-04-30T07:24:22.333Z,97938
2018-04-30T07:26:51.223Z,97954
2018-04-30T07:29:20.093Z,97964
2018-04-30T07:31:48.242Z,97974
2018-04-30T07:34:16.369Z,97972
2018-04-30T07:36:45.253Z,97983
2018-04-30T07:39:13.369Z,97989
2018-04-30T07:41:41.496Z,97992
2018-04-30T07:44:09.607Z,97993
2018-04-30T07:46:38.477Z,97999
2018-04-30T07:49:06.670Z,98003
2018-04-30T07:51:34.725Z,98017
2018-04-30T07:54:04.415Z,98023
2018-04-30T07:56:32.539Z,98029
2018-04-30T07:59:01.438Z,98038
2018-04-30T08:01:30.317Z,98038
2018-04-30T08:03:59.781Z,98047
2018-04-30T08:06:27.894Z,98068
2018-04-30T08:08:57.521Z,98069
2018-04-30T08:11:26.395Z,98077
2018-04-30T08:13:55.274Z,98086
2018-04-30T08:16:23.385Z,98093
2018-04-30T08:18:52.284Z,98103
2018-04-30T08:21:21.174Z,98121
2018-04-30T08:23:50.054Z,98138
2018-04-30T08:26:19.667Z,98143
2018-04-30T08:28:47.766Z,98141
2018-04-30T08:31:16.655Z,98148
2018-04-30T08:33:45.528Z,98153
2018-04-30T08:36:13.654Z,98156
2018-04-30T08:38:41.767Z,98186
2018-04-30T08:41:09.888Z,98180
2018-04-30T08:43:38.772Z,98187
2018-04-30T08:46:07.687Z,98175
2018-04-30T08:48:35.804Z,98191
2018-04-30T08:51:03.920Z,98190
2018-04-30T08:53:32.799Z,98200
2018-04-30T08:56:01.707Z,98213
2018-04-30T08:58:30.592Z,98221
2018-04-30T09:00:59.457Z,98227
2018-04-30T09:03:27.563Z,98247
2018-04-30T09:05:55.672Z,98245
2018-04-30T09:08:23.797Z,98254
2018-04-30T09:10:51.916Z,98265
2018-04-30T09:13:20.786Z,98278
2018-04-30T09:15:48.906Z,98279
2018-04-30T09:18:17.021Z,98274
2018-04-30T09:20:45.135Z,98283
2018-04-30T09:23:14.024Z,98290
2018-04-30T09:25:42.918Z,98283
2018-04-30T09:28:11.907Z,98310
2018-04-30T09:30:40.000Z,98286
2018-04-30T09:33:08.903Z,98290
2018-04-30T09:35:37.786Z,98301
2018-04-30T09:38:06.683Z,98293
2018-04-30T09:40:35.645Z,98313
2018-04-30T09:43:03.779Z,98308
2018-04-30T09:45:31.883Z,98305
2018-04-30T09:48:00.014Z,98300
2018-04-30T09:50:28.899Z,98315
2018-04-30T09:52:57.804Z,98317
2018-04-30T09:55:26.676Z,98318
2018-04-30T09:57:54.877Z,98318
2018-04-30T10:00:23.792Z,98323
2018-04-30T10:02:51.906Z,98319
2018-04-30T10:05:20.034Z,98324
2018-04-30T10:07:48.907Z,98337
2018-04-30T10:10:17.028Z,98335
2018-04-30T10:12:45.140Z,98339
2018-04-30T10:15:13.271Z,98340
2018-04-30T10:17:41.414Z,98340
2018-04-30T10:20:09.560Z,98349
2018-04-30T10:22:37.684Z,98341
2018-04-30T10:25:06.562Z,98338
2018-04-30T10:27:35.445Z,98348
2018-04-30T10:30:03.545Z,98342
2018-04-30T10:32:32.534Z,98343
2018-04-30T10:35:00.647Z,98331
2018-04-30T10:37:28.831Z,98326
2018-04-30T10:39:56.928Z,98317
2018-04-30T10:42:25.093Z,98321
2018-04-30T10:44:53.197Z,98322
2018-04-30T10:47:21.296Z,98335
2018-04-30T10:49:49.409Z,98333
2018-04-30T10:52:17.531Z,98345
2018-04-30T10:54:45.679Z,98345
2018-04-30T10:57:13.796Z,98347
2018-04-30T10:59:42.684Z,98334
2018-04-30T11:02:10.783Z,98342
2018-04-30T11:04:38.931Z,98329
2018-04-30T11:07:07.041Z,98325
2018-04-30T11:09:35.905Z,98323
2018-04-30T11:12:04.070Z,98311
2018-04-30T11:14:32.182Z,98305
2018-04-30T11:17:01.809Z,98322
2018-04-30T11:19:30.693Z,98320
2018-04-30T11:21:58.813Z,98319
2018-04-30T11:24:26.933Z,98315
2018-04-30T11:26:55.070Z,98307
2018-04-30T11:29:23.176Z,98309
2018-04-30T11:31:51.286Z,98328
2018-04-30T11:34:20.181Z,98323
2018-04-30T11:36:49.065Z,98333
2018-04-30T11:39:17.957Z,98347
2018-04-30T11:41:46.844Z,98351
2018-04-30T11:44:14.980Z,98351
2018-04-30T11:46:43.150Z,98375
2018-04-30T11:49:11.294Z,98368
2018-04-30T11:51:40.186Z,98390
2018-04-30T11:54:09.077Z,98395
2018-04-30T11:56:37.975Z,98396
2018-04-30T11:59:06.876Z,98398
2018-04-30T12:01:35.775Z,98410
2018-04-30T12:04:05.373Z,98427
2018-04-30T12:06:33.496Z,98426
2018-04-30T12:09:01.617Z,98423
2018-04-30T12:11:29.753Z,98429
2018-04-30T12:13:58.066Z,98445
2018-04-30T12:16:26.195Z,98452
2018-04-30T12:18:54.328Z,98447
2018-04-30T12:21:23.993Z,98448
2018-04-30T12:23:52.121Z,98456
2018-04-30T12:26:20.241Z,98450
2018-04-30T12:28:49.256Z,98445
2018-04-30T12:31:17.370Z,98461
2018-04-30T12:33:46.258Z,98467
2018-04-30T12:36:14.394Z,98470
2018-04-30T12:38:42.523Z,98475
2018-04-30T12:41:10.646Z,98473
2018-04-30T12:43:38.841Z,98479
2018-04-30T12:46:06.880Z,98483
2018-04-30T12:48:35.774Z,98490
2018-04-30T12:51:04.657Z,98486
2018-04-30T12:53:32.788Z,98492
2018-04-30T12:56:00.918Z,98493
2018-04-30T12:58:29.814Z,98501
2018-04-30T13:00:58.709Z,98488
2018-04-30T13:03:27.601Z,98497
2018-04-30T13:05:56.499Z,98504
2018-04-30T13:08:25.398Z,98501
2018-04-30T13:10:54.288Z,98493
2018-04-30T13:13:23.195Z,98492
2018-04-30T13:15:52.085Z,98505
2018-04-30T13:18:20.208Z,98505
2018-04-30T13:20:48.350Z,98500
2018-04-30T13:23:17.237Z,98497
2018-04-30T13:25:46.128Z,98498
2018-04-30T13:28:15.013Z,98496
2018-04-30T13:30:43.892Z,98494
2018-04-30T13:33:12.014Z,98491
2018-04-30T13:35:40.132Z,98499
2018-04-30T13:38:08.268Z,98489
2018-04-30T13:40:36.381Z,98489
2018-04-30T13:43:04.485Z,98488
2018-04-30T13:45:32.711Z,98476
2018-04-30T13:48:00.808Z,98477
2018-04-30T13:50:28.934Z,98477
2018-04-30T13:52:57.811Z,98477
2018-04-30T13:55:26.677Z,98476
2018-04-30T13:57:54.796Z,98489
2018-04-30T14:00:23.840Z,98490
2018-04-30T14:02:51.974Z,98489
2018-04-30T14:05:20.838Z,98486
2018-04-30T14:07:48.948Z,98483
2018-04-30T14:10:17.829Z,98494
2018-04-30T14:12:45.943Z,98491
2018-04-30T14:15:14.077Z,98480
2018-04-30T14:17:42.177Z,98487
2018-04-30T14:20:11.058Z,98491
2018-04-30T14:22:39.950Z,98484
2018-04-30T14:25:08.838Z,98501
2018-04-30T14:27:36.957Z,98498
2018-04-30T14:30:05.070Z,98502
2018-04-30T14:32:33.205Z,98505
2018-04-30T14:35:01.335Z,98502
2018-04-30T14:37:29.433Z,98507
2018-04-30T14:39:57.556Z,98501
2018-04-30T14:42:25.663Z,98515
2018-04-30T14:44:53.813Z,98504
2018-04-30T14:47:21.923Z,98513
2018-04-30T14:49:50.035Z,98516
2018-04-30T14:52:19.154Z,98513
2018-04-30T14:54:47.278Z,98518
2018-04-30T14:57:15.389Z,98510
2018-04-30T14:59:44.267Z,98513
2018-04-30T15:02:12.402Z,98527
2018-04-30T15:04:40.504Z,98530
2018-04-30T15:07:08.626Z,98540
2018-04-30T15:09:36.764Z,98521
2018-04-30T15:12:05.024Z,98520
2018-04-30T15:14:33.373Z,98524
2018-04-30T15:17:01.485Z,98523
2018-04-30T15:19:29.669Z,98537
2018-04-30T15:21:58.505Z,98534
2018-04-30T15:24:27.390Z,98535
2018-04-30T15:26:56.269Z,98538
2018-04-30T15:29:24.454Z,98540
2018-04-30T15:31:52.558Z,98530
2018-04-30T15:34:21.446Z,98536
2018-04-30T15:36:50.325Z,98541
2018-04-30T15:39:18.439Z,98531
2018-04-30T15:41:46.567Z,98538
2018-04-30T15:44:14.692Z,98542
2018-04-30T15:46:42.841Z,98543
2018-04-30T15:49:11.726Z,98549
2018-04-30T15:51:39.839Z,98544
2018-04-30T15:54:07.956Z,98541
2018-04-30T15:56:36.079Z,98553
2018-04-30T15:59:05.038Z,98548
2018-04-30T16:01:33.841Z,98553
2018-04-30T16:04:01.997Z,98547
2018-04-30T16:06:30.153Z,98550
2018-04-30T16:08:58.268Z,98546
2018-04-30T16:11:26.403Z,98553
2018-04-30T16:13:54.509Z,98548
2018-04-30T16:16:22.612Z,98549
2018-04-30T16:18:50.735Z,98555
2018-04-30T16:21:18.848Z,98552
2018-04-30T16:23:46.995Z,98556
2018-04-30T16:26:15.114Z,98555
2018-04-30T16:28:43.214Z,98549
2018-04-30T16:31:12.124Z,98552
2018-04-30T16:33:40.245Z,98550
2018-04-30T16:36:08.370Z,98551
2018-04-30T16:38:37.250Z,98548
2018-04-30T16:41:05.350Z,98548
2018-04-30T16:43:33.529Z,98543
2018-04-30T16:46:01.594Z,98545
2018-04-30T16:48:30.477Z,98534
2018-04-30T16:50:59.381Z,98540
2018-04-30T16:53:28.267Z,98534
2018-04-30T16:55:57.147Z,98537
2018-04-30T16:58:25.268Z,98542
2018-04-30T17:00:53.377Z,98538
2018-04-30T17:03:21.516Z,98538
2018-04-30T17:05:49.629Z,98539
2018-04-30T17:08:17.741Z,98536
2018-04-30T17:10:46.728Z,98539
2018-04-30T17:13:14.832Z,98535
2018-04-30T17:15:43.726Z,98537
2018-04-30T17:18:12.593Z,98542
2018-04-30T17:20:40.703Z,98543
2018-04-30T17:23:08.838Z,98545
2018-04-30T17:25:36.952Z,98548
2018-04-30T17:28:05.888Z,98550
2018-04-30T17:30:34.723Z,98546
2018-04-30T17:33:02.820Z,98551
2018-04-30T17:35:31.709Z,98557
2018-04-30T17:38:00.583Z,98555
2018-04-30T17:40:28.696Z,98560
2018-04-30T17:42:56.924Z,98564
2018-04-30T17:45:24.981Z,98565
2018-04-30T17:47:53.105Z,98564
2018-04-30T17:50:21.215Z,98562
2018-04-30T17:52:49.341Z,98567
2018-04-30T17:55:18.971Z,98569
2018-04-30T17:57:47.091Z,98576
2018-04-30T18:00:15.202Z,98567
2018-04-30T18:02:43.347Z,98570
2018-04-30T18:05:11.465Z,98580
2018-04-30T18:07:39.805Z,98587
2018-04-30T18:10:07.933Z,98591
2018-04-30T18:12:36.057Z,98585
2018-04-30T18:15:04.229Z,98583
2018-04-30T18:17:32.344Z,98589
2018-04-30T18:20:00.465Z,98596
2018-04-30T18:22:29.350Z,98591
2018-04-30T18:24:58.234Z,98592
2018-04-30T18:27:26.367Z,98593
2018-04-30T18:29:54.483Z,98593
2018-04-30T18:32:23.415Z,98604
2018-04-30T18:34:52.281Z,98600
2018-04-30T18:37:20.419Z,98606
2018-04-30T18:39:48.541Z,98612
2018-04-30T18:42:17.437Z,98604
2018-04-30T18:44:46.334Z,98617
2018-04-30T18:47:14.527Z,98621
2018-04-30T18:49:42.664Z,98623
2018-04-30T18:52:11.569Z,98611
2018-04-30T18:54:39.705Z,98621
2018-04-30T18:57:07.827Z,98611
2018-04-30T18:59:35.963Z,98615
2018-04-30T19:02:04.093Z,98611
2018-04-30T19:04:32.988Z,98618
2018-04-30T19:07:01.851Z,98614
2018-04-30T19:09:29.995Z,98618
2018-04-30T19:11:58.101Z,98617
2018-04-30T19:14:26.247Z,98619
2018-04-30T19:16:55.147Z,98623
2018-04-30T19:19:23.268Z,98632
2018-04-30T19:21:52.893Z,98636
2018-04-30T19:24:20.993Z,98636
2018-04-30T19:26:49.114Z,98639
2018-04-30T19:29:17.232Z,98652
2018-04-30T19:31:46.178Z,98649
2018-04-30T19:34:14.241Z,98648
2018-04-30T19:36:42.365Z,98654
2018-04-30T19:39:10.499Z,98649
2018-04-30T19:41:38.622Z,98658
2018-04-30T19:44:07.540Z,98651
2018-04-30T19:46:36.425Z,98655
2018-04-30T19:49:05.317Z,98656
2018-04-30T19:51:34.203Z,98664
2018-04-30T19:54:02.446Z,98667
2018-04-30T19:56:30.569Z,98668
2018-04-30T19:58:58.686Z,98675
2018-04-30T20:01:27.641Z,98672
2018-04-30T20:03:56.589Z,98680
2018-04-30T20:06:24.700Z,98683
2018-04-30T20:08:52.864Z,98679
2018-04-30T20:11:20.942Z,98688
2018-04-30T20:13:49.048Z,98679
2018-04-30T20:16:17.947Z,98693
2018-04-30T20:18:46.838Z,98691
2018-04-30T20:21:15.727Z,98697
2018-04-30T20:23:43.870Z,98701
2018-04-30T20:26:11.997Z,98700
2018-04-30T20:28:40.875Z,98705
2018-04-30T20:31:09.013Z,98689
2018-04-30T20:33:37.129Z,98675
2018-04-30T20:36:05.238Z,98690
2018-04-30T20:38:33.354Z,98686
2018-04-30T20:41:01.473Z,98684
2018-04-30T20:43:30.356Z,98678
2018-04-30T20:45:59.243Z,98682
2018-04-30T20:48:27.380Z,98686
2018-04-30T20:50:55.498Z,98688
2018-04-30T20:53:23.619Z,98686
2018-04-30T20:55:51.746Z,98688
2018-04-30T20:58:19.854Z,98693
2018-04-30T21:00:48.778Z,98700
2018-04-30T21:03:16.939Z,98716
2018-04-30T21:05:45.062Z,98719
2018-04-30T21:08:13.169Z,98739
2018-04-30T21:10:41.287Z,98753
2018-04-30T21:13:09.410Z,98751
2018-04-30T21:15:37.543Z,98753
2018-04-30T21:18:05.681Z,98739
2018-04-30T21:20:34.555Z,98741
2018-04-30T21:23:02.688Z,98746
2018-04-30T21:25:30.892Z,98742
2018-04-30T21:27:59.730Z,98741
2018-04-30T21:30:28.610Z,98745
2018-04-30T21:32:56.748Z,98743
2018-04-30T21:35:24.857Z,98737
2018-04-30T21:37:53.769Z,98735
2018-04-30T21:40:22.655Z,98737
2018-04-30T21:42:50.779Z,98735
2018-04-30T21:45:18.901Z,98740
2018-04-30T21:47:47.010Z,98736
2018-04-30T21:50:15.917Z,98736
2018-04-30T21:52:44.037Z,98747
2018-04-30T21:55:12.176Z,98742
2018-04-30T21:57:40.301Z,98744
2018-04-30T22:00:08.402Z,98743
2018-04-30T22:02:37.327Z,98744
2018-04-30T22:05:05.506Z,98745
2018-04-30T22:07:33.627Z,98756
2018-04-30T22:10:01.744Z,98766
2018-04-30T22:12:30.647Z,98769
2018-04-30T22:14:58.766Z,98785
2018-04-30T22:17:26.909Z,98778
2018-04-30T22:19:55.073Z,98788
2018-04-30T22:22:23.958Z,98782
2018-04-30T22:24:52.849Z,98780
2018-04-30T22:27:21.729Z,98774
2018-04-30T22:29:49.872Z,98768
2018-04-30T22:32:18.089Z,98766
2018-04-30T22:34:46.220Z,98772
2018-04-30T22:37:14.337Z,98774
2018-04-30T22:39:42.476Z,98781
2018-04-30T22:42:10.573Z,98775
2018-04-30T22:44:38.677Z,98766
2018-04-30T22:47:06.801Z,98757
2018-04-30T22:49:34.929Z,98772
2018-04-30T22:52:03.043Z,98783
2018-04-30T22:54:31.155Z,98799
2018-04-30T22:56:59.285Z,98799
2018-04-30T22:59:28.171Z,98801
2018-04-30T23:01:57.063Z,98798
2018-04-30T23:04:25.955Z,98800
2018-04-30T23:06:54.850Z,98798
2018-04-30T23:09:23.729Z,98799
2018-04-30T23:11:51.842Z,98793
2018-04-30T23:14:19.966Z,98780
2018-04-30T23:16:48.075Z,98785
2018-04-30T23:19:16.973Z,98785
2018-04-30T23:21:45.849Z,98802
2018-04-30T23:24:13.968Z,98795
2018-04-30T23:26:42.080Z,98791
2018-04-30T23:29:10.217Z,98780
2018-04-30T23:31:38.342Z,98781
2018-04-30T23:34:06.494Z,98784
2018-04-30T23:36:34.627Z,98792
2018-04-30T23:39:03.529Z,98785
2018-04-30T23:41:32.438Z,98779
2018-04-30T23:44:00.559Z,98783
2018-04-30T23:46:28.678Z,98781
2018-04-30T23:48:57.558Z,98780
2018-04-30T23:51:25.662Z,98775
2018-04-30T23:53:54.558Z,98763
2018-04-30T23:56:22.747Z,98763
2018-04-30T23:58:50.875Z,98749
